Prince Albert Glass Field

CYPA | YPA

Prince Albert , Saskatchewan , Canada

Saturday, September 21st, 2019 | 05:32

Weather

CYPA 211100Z 28006KT 15SM FEW250 07/06 A2982 RMK CI1 SLP108

Charts

No Charts Available

Gates

No Gates Available

Runways

2 Available

Events

No events for this airport


New event